sensor_id;sensor_type;location;lat;lon;timestamp;P1;durP1;ratioP1;P2;durP2;ratioP2
11962;SDS011;62678;52.130;5.584;2022-09-09T00:00:43;2.63;;;2.05;;
11962;SDS011;62678;52.130;5.584;2022-09-09T00:03:16;3.70;;;2.58;;
11962;SDS011;62678;52.130;5.584;2022-09-09T00:05:46;3.65;;;2.30;;
11962;SDS011;62678;52.130;5.584;2022-09-09T00:08:21;3.58;;;2.30;;
11962;SDS011;62678;52.130;5.584;2022-09-09T00:10:56;3.83;;;2.03;;
11962;SDS011;62678;52.130;5.584;2022-09-09T00:13:28;4.57;;;2.17;;
11962;SDS011;62678;52.130;5.584;2022-09-09T00:16:01;5.53;;;2.20;;
11962;SDS011;62678;52.130;5.584;2022-09-09T00:18:44;4.88;;;2.67;;
11962;SDS011;62678;52.130;5.584;2022-09-09T00:21:18;4.05;;;2.50;;
11962;SDS011;62678;52.130;5.584;2022-09-09T00:23:50;4.50;;;2.50;;
11962;SDS011;62678;52.130;5.584;2022-09-09T00:26:20;3.42;;;2.00;;
11962;SDS011;62678;52.130;5.584;2022-09-09T00:28:58;7.32;;;2.65;;
11962;SDS011;62678;52.130;5.584;2022-09-09T00:31:30;2.45;;;2.25;;
11962;SDS011;62678;52.130;5.584;2022-09-09T00:33:58;4.93;;;2.78;;
11962;SDS011;62678;52.130;5.584;2022-09-09T00:36:30;6.75;;;3.70;;
11962;SDS011;62678;52.130;5.584;2022-09-09T00:39:02;5.10;;;3.63;;
11962;SDS011;62678;52.130;5.584;2022-09-09T00:41:32;5.95;;;3.90;;
11962;SDS011;62678;52.130;5.584;2022-09-09T00:44:17;5.63;;;4.28;;
11962;SDS011;62678;52.130;5.584;2022-09-09T00:46:56;5.68;;;5.03;;
11962;SDS011;62678;52.130;5.584;2022-09-09T00:49:34;7.25;;;4.65;;
11962;SDS011;62678;52.130;5.584;2022-09-09T00:52:13;7.53;;;5.10;;
11962;SDS011;62678;52.130;5.584;2022-09-09T00:54:55;7.00;;;5.70;;
11962;SDS011;62678;52.130;5.584;2022-09-09T00:57:31;8.82;;;5.72;;
11962;SDS011;62678;52.130;5.584;2022-09-09T01:00:01;10.70;;;6.05;;
11962;SDS011;62678;52.130;5.584;2022-09-09T01:02:48;9.13;;;6.30;;
11962;SDS011;62678;52.130;5.584;2022-09-09T01:05:33;7.60;;;6.85;;
11962;SDS011;62678;52.130;5.584;2022-09-09T01:08:06;8.73;;;6.60;;
11962;SDS011;62678;52.130;5.584;2022-09-09T01:10:41;10.15;;;7.35;;
11962;SDS011;62678;52.130;5.584;2022-09-09T01:13:17;8.13;;;7.32;;
11962;SDS011;62678;52.130;5.584;2022-09-09T01:15:48;7.85;;;7.05;;
11962;SDS011;62678;52.130;5.584;2022-09-09T01:18:19;9.10;;;7.72;;
11962;SDS011;62678;52.130;5.584;2022-09-09T01:20:49;9.80;;;7.22;;
11962;SDS011;62678;52.130;5.584;2022-09-09T01:23:28;12.07;;;7.53;;
11962;SDS011;62678;52.130;5.584;2022-09-09T01:26:09;9.15;;;6.93;;
11962;SDS011;62678;52.130;5.584;2022-09-09T01:28:44;10.27;;;7.97;;
11962;SDS011;62678;52.130;5.584;2022-09-09T01:31:14;8.20;;;6.68;;
11962;SDS011;62678;52.130;5.584;2022-09-09T01:33:44;11.20;;;7.30;;
11962;SDS011;62678;52.130;5.584;2022-09-09T01:36:12;9.20;;;7.00;;
11962;SDS011;62678;52.130;5.584;2022-09-09T01:38:41;9.38;;;7.03;;
11962;SDS011;62678;52.130;5.584;2022-09-09T01:41:09;9.18;;;6.57;;
11962;SDS011;62678;52.130;5.584;2022-09-09T01:43:36;9.68;;;6.88;;
11962;SDS011;62678;52.130;5.584;2022-09-09T01:46:03;8.80;;;6.78;;
11962;SDS011;62678;52.130;5.584;2022-09-09T01:48:30;11.63;;;7.45;;
11962;SDS011;62678;52.130;5.584;2022-09-09T01:50:58;12.02;;;7.32;;
11962;SDS011;62678;52.130;5.584;2022-09-09T01:53:24;10.00;;;6.75;;
11962;SDS011;62678;52.130;5.584;2022-09-09T01:55:55;9.52;;;7.07;;
11962;SDS011;62678;52.130;5.584;2022-09-09T01:58:33;10.00;;;7.28;;
11962;SDS011;62678;52.130;5.584;2022-09-09T02:01:10;9.90;;;7.40;;
11962;SDS011;62678;52.130;5.584;2022-09-09T02:03:41;11.45;;;7.20;;
11962;SDS011;62678;52.130;5.584;2022-09-09T02:06:19;12.10;;;8.15;;
11962;SDS011;62678;52.130;5.584;2022-09-09T02:08:52;11.93;;;8.23;;
11962;SDS011;62678;52.130;5.584;2022-09-09T02:11:23;10.30;;;7.43;;
11962;SDS011;62678;52.130;5.584;2022-09-09T02:13:52;12.57;;;8.68;;
11962;SDS011;62678;52.130;5.584;2022-09-09T02:16:23;13.15;;;8.75;;
11962;SDS011;62678;52.130;5.584;2022-09-09T02:18:53;14.32;;;9.43;;
11962;SDS011;62678;52.130;5.584;2022-09-09T02:21:25;13.50;;;9.55;;
11962;SDS011;62678;52.130;5.584;2022-09-09T02:23:54;13.18;;;10.50;;
11962;SDS011;62678;52.130;5.584;2022-09-09T02:26:25;12.52;;;10.73;;
11962;SDS011;62678;52.130;5.584;2022-09-09T02:28:55;15.27;;;11.70;;
11962;SDS011;62678;52.130;5.584;2022-09-09T02:31:25;12.35;;;10.30;;
11962;SDS011;62678;52.130;5.584;2022-09-09T02:33:54;15.50;;;10.98;;
11962;SDS011;62678;52.130;5.584;2022-09-09T02:36:24;13.60;;;10.95;;
11962;SDS011;62678;52.130;5.584;2022-09-09T02:38:55;19.88;;;11.50;;
11962;SDS011;62678;52.130;5.584;2022-09-09T02:41:23;13.98;;;11.65;;
11962;SDS011;62678;52.130;5.584;2022-09-09T02:43:55;17.77;;;12.23;;
11962;SDS011;62678;52.130;5.584;2022-09-09T02:46:24;15.05;;;12.35;;
11962;SDS011;62678;52.130;5.584;2022-09-09T02:49:01;18.17;;;12.68;;
11962;SDS011;62678;52.130;5.584;2022-09-09T02:51:35;16.25;;;12.30;;
11962;SDS011;62678;52.130;5.584;2022-09-09T02:54:09;16.48;;;12.05;;
11962;SDS011;62678;52.130;5.584;2022-09-09T02:56:40;18.38;;;11.55;;
11962;SDS011;62678;52.130;5.584;2022-09-09T02:59:11;21.50;;;12.95;;
11962;SDS011;62678;52.130;5.584;2022-09-09T03:01:38;14.68;;;11.93;;
11962;SDS011;62678;52.130;5.584;2022-09-09T03:04:05;14.60;;;11.98;;
11962;SDS011;62678;52.130;5.584;2022-09-09T03:06:32;14.48;;;11.43;;
11962;SDS011;62678;52.130;5.584;2022-09-09T03:08:58;13.70;;;10.52;;
11962;SDS011;62678;52.130;5.584;2022-09-09T03:11:26;13.10;;;10.98;;
11962;SDS011;62678;52.130;5.584;2022-09-09T03:13:54;13.15;;;10.45;;
11962;SDS011;62678;52.130;5.584;2022-09-09T03:16:22;14.82;;;11.02;;
11962;SDS011;62678;52.130;5.584;2022-09-09T03:18:49;12.88;;;10.50;;
11962;SDS011;62678;52.130;5.584;2022-09-09T03:21:17;14.45;;;11.23;;
11962;SDS011;62678;52.130;5.584;2022-09-09T03:23:44;13.93;;;10.57;;
11962;SDS011;62678;52.130;5.584;2022-09-09T03:26:11;12.65;;;10.52;;
11962;SDS011;62678;52.130;5.584;2022-09-09T03:28:40;13.77;;;10.35;;
11962;SDS011;62678;52.130;5.584;2022-09-09T03:31:06;14.70;;;10.60;;
11962;SDS011;62678;52.130;5.584;2022-09-09T03:33:36;16.77;;;11.07;;
11962;SDS011;62678;52.130;5.584;2022-09-09T03:36:03;14.15;;;10.90;;
11962;SDS011;62678;52.130;5.584;2022-09-09T03:38:32;18.90;;;11.10;;
11962;SDS011;62678;52.130;5.584;2022-09-09T03:40:59;13.48;;;11.02;;
11962;SDS011;62678;52.130;5.584;2022-09-09T03:43:27;13.85;;;10.70;;
11962;SDS011;62678;52.130;5.584;2022-09-09T03:45:54;13.65;;;10.82;;
11962;SDS011;62678;52.130;5.584;2022-09-09T03:48:21;12.70;;;10.45;;
11962;SDS011;62678;52.130;5.584;2022-09-09T03:50:51;16.30;;;11.52;;
11962;SDS011;62678;52.130;5.584;2022-09-09T03:53:19;17.80;;;11.40;;
11962;SDS011;62678;52.130;5.584;2022-09-09T03:55:48;12.75;;;11.00;;
11962;SDS011;62678;52.130;5.584;2022-09-09T03:58:17;15.38;;;10.98;;
11962;SDS011;62678;52.130;5.584;2022-09-09T04:00:52;13.00;;;10.50;;
11962;SDS011;62678;52.130;5.584;2022-09-09T04:03:19;14.88;;;10.95;;
11962;SDS011;62678;52.130;5.584;2022-09-09T04:05:48;16.42;;;10.80;;
11962;SDS011;62678;52.130;5.584;2022-09-09T04:08:16;15.98;;;10.35;;
11962;SDS011;62678;52.130;5.584;2022-09-09T04:10:44;14.23;;;11.65;;
11962;SDS011;62678;52.130;5.584;2022-09-09T04:13:11;14.85;;;10.82;;
11962;SDS011;62678;52.130;5.584;2022-09-09T04:15:41;15.40;;;10.98;;
11962;SDS011;62678;52.130;5.584;2022-09-09T04:18:08;15.35;;;11.07;;
11962;SDS011;62678;52.130;5.584;2022-09-09T04:20:35;16.85;;;10.65;;
11962;SDS011;62678;52.130;5.584;2022-09-09T04:23:02;13.20;;;10.40;;
11962;SDS011;62678;52.130;5.584;2022-09-09T04:25:30;17.08;;;11.48;;
11962;SDS011;62678;52.130;5.584;2022-09-09T04:27:59;14.82;;;11.55;;
11962;SDS011;62678;52.130;5.584;2022-09-09T04:30:25;14.30;;;11.02;;
11962;SDS011;62678;52.130;5.584;2022-09-09T04:32:53;16.15;;;11.95;;
11962;SDS011;62678;52.130;5.584;2022-09-09T04:35:20;14.85;;;10.48;;
11962;SDS011;62678;52.130;5.584;2022-09-09T04:37:46;15.55;;;10.23;;
11962;SDS011;62678;52.130;5.584;2022-09-09T04:40:14;14.88;;;10.60;;
11962;SDS011;62678;52.130;5.584;2022-09-09T04:42:42;17.05;;;10.48;;
11962;SDS011;62678;52.130;5.584;2022-09-09T04:45:09;16.00;;;10.82;;
11962;SDS011;62678;52.130;5.584;2022-09-09T04:47:38;13.65;;;10.65;;
11962;SDS011;62678;52.130;5.584;2022-09-09T04:50:06;14.90;;;10.57;;
11962;SDS011;62678;52.130;5.584;2022-09-09T04:52:33;17.42;;;11.15;;
11962;SDS011;62678;52.130;5.584;2022-09-09T04:55:01;18.50;;;10.48;;
11962;SDS011;62678;52.130;5.584;2022-09-09T04:57:27;20.30;;;10.90;;
11962;SDS011;62678;52.130;5.584;2022-09-09T04:59:58;15.65;;;10.10;;
11962;SDS011;62678;52.130;5.584;2022-09-09T05:02:25;17.02;;;9.27;;
11962;SDS011;62678;52.130;5.584;2022-09-09T05:04:51;14.52;;;9.60;;
11962;SDS011;62678;52.130;5.584;2022-09-09T05:07:18;15.63;;;10.00;;
11962;SDS011;62678;52.130;5.584;2022-09-09T05:09:45;18.35;;;9.10;;
11962;SDS011;62678;52.130;5.584;2022-09-09T05:12:14;12.45;;;9.23;;
11962;SDS011;62678;52.130;5.584;2022-09-09T05:14:41;14.60;;;9.15;;
11962;SDS011;62678;52.130;5.584;2022-09-09T05:17:10;14.45;;;9.43;;
11962;SDS011;62678;52.130;5.584;2022-09-09T05:19:37;17.60;;;9.73;;
11962;SDS011;62678;52.130;5.584;2022-09-09T05:22:04;15.07;;;9.20;;
11962;SDS011;62678;52.130;5.584;2022-09-09T05:24:31;12.57;;;9.35;;
11962;SDS011;62678;52.130;5.584;2022-09-09T05:26:58;15.05;;;8.90;;
11962;SDS011;62678;52.130;5.584;2022-09-09T05:29:27;15.70;;;8.82;;
11962;SDS011;62678;52.130;5.584;2022-09-09T05:31:54;15.50;;;8.80;;
11962;SDS011;62678;52.130;5.584;2022-09-09T05:34:22;13.02;;;8.98;;
11962;SDS011;62678;52.130;5.584;2022-09-09T05:36:49;16.27;;;9.00;;
11962;SDS011;62678;52.130;5.584;2022-09-09T05:39:17;16.90;;;8.02;;
11962;SDS011;62678;52.130;5.584;2022-09-09T05:41:44;19.13;;;8.52;;
11962;SDS011;62678;52.130;5.584;2022-09-09T05:44:10;17.60;;;8.32;;
11962;SDS011;62678;52.130;5.584;2022-09-09T05:46:38;14.90;;;7.82;;
11962;SDS011;62678;52.130;5.584;2022-09-09T05:49:05;15.38;;;7.50;;
11962;SDS011;62678;52.130;5.584;2022-09-09T05:51:34;18.63;;;8.43;;
11962;SDS011;62678;52.130;5.584;2022-09-09T05:54:01;14.90;;;7.90;;
11962;SDS011;62678;52.130;5.584;2022-09-09T05:56:28;12.70;;;7.72;;
11962;SDS011;62678;52.130;5.584;2022-09-09T05:58:57;15.48;;;9.30;;
11962;SDS011;62678;52.130;5.584;2022-09-09T06:01:25;14.73;;;7.50;;
11962;SDS011;62678;52.130;5.584;2022-09-09T06:03:53;15.75;;;7.20;;
11962;SDS011;62678;52.130;5.584;2022-09-09T06:06:21;13.57;;;6.28;;
11962;SDS011;62678;52.130;5.584;2022-09-09T06:08:52;18.38;;;7.68;;
11962;SDS011;62678;52.130;5.584;2022-09-09T06:11:22;15.93;;;6.18;;
11962;SDS011;62678;52.130;5.584;2022-09-09T06:13:50;13.98;;;5.78;;
11962;SDS011;62678;52.130;5.584;2022-09-09T06:16:19;12.80;;;5.82;;
11962;SDS011;62678;52.130;5.584;2022-09-09T06:18:48;10.85;;;5.53;;
11962;SDS011;62678;52.130;5.584;2022-09-09T06:21:16;19.50;;;5.95;;
11962;SDS011;62678;52.130;5.584;2022-09-09T06:23:44;22.30;;;6.22;;
11962;SDS011;62678;52.130;5.584;2022-09-09T06:26:14;12.98;;;5.68;;
11962;SDS011;62678;52.130;5.584;2022-09-09T06:28:43;10.40;;;5.10;;
11962;SDS011;62678;52.130;5.584;2022-09-09T06:31:12;14.95;;;5.72;;
11962;SDS011;62678;52.130;5.584;2022-09-09T06:33:40;13.05;;;4.90;;
11962;SDS011;62678;52.130;5.584;2022-09-09T06:36:10;11.57;;;5.10;;
11962;SDS011;62678;52.130;5.584;2022-09-09T06:38:38;10.63;;;5.13;;
11962;SDS011;62678;52.130;5.584;2022-09-09T06:41:05;18.85;;;5.18;;
11962;SDS011;62678;52.130;5.584;2022-09-09T06:43:33;10.88;;;4.85;;
11962;SDS011;62678;52.130;5.584;2022-09-09T06:46:00;14.15;;;4.90;;
11962;SDS011;62678;52.130;5.584;2022-09-09T06:48:28;14.75;;;5.22;;
11962;SDS011;62678;52.130;5.584;2022-09-09T06:51:03;12.95;;;4.25;;
11962;SDS011;62678;52.130;5.584;2022-09-09T06:53:31;12.30;;;5.20;;
11962;SDS011;62678;52.130;5.584;2022-09-09T06:58:59;12.57;;;4.13;;
11962;SDS011;62678;52.130;5.584;2022-09-09T07:01:29;9.65;;;3.78;;
11962;SDS011;62678;52.130;5.584;2022-09-09T07:03:58;10.20;;;4.00;;
11962;SDS011;62678;52.130;5.584;2022-09-09T07:06:27;10.77;;;3.63;;
11962;SDS011;62678;52.130;5.584;2022-09-09T07:08:58;9.32;;;3.60;;
11962;SDS011;62678;52.130;5.584;2022-09-09T07:11:26;16.42;;;4.05;;
11962;SDS011;62678;52.130;5.584;2022-09-09T07:13:54;12.32;;;3.85;;
11962;SDS011;62678;52.130;5.584;2022-09-09T07:16:23;10.88;;;3.30;;
11962;SDS011;62678;52.130;5.584;2022-09-09T07:18:51;10.95;;;3.90;;
11962;SDS011;62678;52.130;5.584;2022-09-09T07:21:28;15.82;;;3.60;;
11962;SDS011;62678;52.130;5.584;2022-09-09T07:23:59;10.68;;;3.67;;
11962;SDS011;62678;52.130;5.584;2022-09-09T07:26:34;9.88;;;3.53;;
11962;SDS011;62678;52.130;5.584;2022-09-09T07:29:03;14.05;;;3.40;;
11962;SDS011;62678;52.130;5.584;2022-09-09T07:31:43;9.32;;;3.03;;
11962;SDS011;62678;52.130;5.584;2022-09-09T07:34:18;13.07;;;3.50;;
11962;SDS011;62678;52.130;5.584;2022-09-09T07:36:46;6.50;;;3.00;;
11962;SDS011;62678;52.130;5.584;2022-09-09T07:39:14;9.48;;;2.65;;
11962;SDS011;62678;52.130;5.584;2022-09-09T07:41:43;6.63;;;2.70;;
11962;SDS011;62678;52.130;5.584;2022-09-09T07:44:11;10.20;;;3.00;;
11962;SDS011;62678;52.130;5.584;2022-09-09T07:46:40;6.80;;;2.88;;
11962;SDS011;62678;52.130;5.584;2022-09-09T07:49:09;9.38;;;3.00;;
11962;SDS011;62678;52.130;5.584;2022-09-09T07:51:48;10.25;;;2.97;;
11962;SDS011;62678;52.130;5.584;2022-09-09T07:54:16;11.00;;;3.15;;
11962;SDS011;62678;52.130;5.584;2022-09-09T07:59:30;11.88;;;2.90;;
11962;SDS011;62678;52.130;5.584;2022-09-09T08:01:56;10.30;;;2.60;;
11962;SDS011;62678;52.130;5.584;2022-09-09T08:04:25;6.97;;;2.50;;
11962;SDS011;62678;52.130;5.584;2022-09-09T08:06:54;9.98;;;3.00;;
11962;SDS011;62678;52.130;5.584;2022-09-09T08:09:22;10.52;;;2.58;;
11962;SDS011;62678;52.130;5.584;2022-09-09T08:11:52;11.85;;;2.67;;
11962;SDS011;62678;52.130;5.584;2022-09-09T08:14:20;12.85;;;4.30;;
11962;SDS011;62678;52.130;5.584;2022-09-09T08:16:47;13.52;;;4.07;;
11962;SDS011;62678;52.130;5.584;2022-09-09T08:19:15;8.02;;;2.50;;
11962;SDS011;62678;52.130;5.584;2022-09-09T08:21:43;8.00;;;2.67;;
11962;SDS011;62678;52.130;5.584;2022-09-09T08:24:11;8.40;;;3.15;;
11962;SDS011;62678;52.130;5.584;2022-09-09T08:26:40;10.10;;;2.35;;
11962;SDS011;62678;52.130;5.584;2022-09-09T08:29:08;12.40;;;2.75;;
11962;SDS011;62678;52.130;5.584;2022-09-09T08:31:37;7.03;;;2.63;;
11962;SDS011;62678;52.130;5.584;2022-09-09T08:34:05;9.23;;;2.33;;
11962;SDS011;62678;52.130;5.584;2022-09-09T08:36:33;6.45;;;2.15;;
11962;SDS011;62678;52.130;5.584;2022-09-09T08:39:03;6.97;;;2.58;;
11962;SDS011;62678;52.130;5.584;2022-09-09T08:41:37;8.52;;;2.50;;
11962;SDS011;62678;52.130;5.584;2022-09-09T08:44:12;10.40;;;2.40;;
11962;SDS011;62678;52.130;5.584;2022-09-09T08:46:47;9.98;;;2.53;;
11962;SDS011;62678;52.130;5.584;2022-09-09T08:49:27;10.55;;;2.42;;
11962;SDS011;62678;52.130;5.584;2022-09-09T08:52:12;11.68;;;2.22;;
11962;SDS011;62678;52.130;5.584;2022-09-09T08:54:45;13.25;;;2.40;;
11962;SDS011;62678;52.130;5.584;2022-09-09T08:57:14;8.93;;;2.13;;
11962;SDS011;62678;52.130;5.584;2022-09-09T08:59:45;9.75;;;2.28;;
11962;SDS011;62678;52.130;5.584;2022-09-09T09:02:14;11.90;;;2.42;;
11962;SDS011;62678;52.130;5.584;2022-09-09T09:04:56;8.25;;;2.22;;
11962;SDS011;62678;52.130;5.584;2022-09-09T09:07:33;12.43;;;2.78;;
11962;SDS011;62678;52.130;5.584;2022-09-09T09:10:19;10.93;;;2.63;;
11962;SDS011;62678;52.130;5.584;2022-09-09T09:12:57;8.18;;;2.28;;
11962;SDS011;62678;52.130;5.584;2022-09-09T09:15:27;10.93;;;2.45;;
11962;SDS011;62678;52.130;5.584;2022-09-09T09:18:01;8.25;;;2.17;;
11962;SDS011;62678;52.130;5.584;2022-09-09T09:20:30;11.88;;;2.50;;
11962;SDS011;62678;52.130;5.584;2022-09-09T09:23:05;13.70;;;2.47;;
11962;SDS011;62678;52.130;5.584;2022-09-09T09:25:35;8.15;;;2.17;;
11962;SDS011;62678;52.130;5.584;2022-09-09T09:28:10;9.73;;;2.33;;
11962;SDS011;62678;52.130;5.584;2022-09-09T09:30:42;10.48;;;2.55;;
11962;SDS011;62678;52.130;5.584;2022-09-09T09:33:15;12.25;;;2.47;;
11962;SDS011;62678;52.130;5.584;2022-09-09T09:35:48;10.98;;;2.20;;
11962;SDS011;62678;52.130;5.584;2022-09-09T09:38:19;9.02;;;2.17;;
11962;SDS011;62678;52.130;5.584;2022-09-09T09:40:52;10.20;;;3.45;;
11962;SDS011;62678;52.130;5.584;2022-09-09T09:43:23;10.70;;;3.88;;
11962;SDS011;62678;52.130;5.584;2022-09-09T09:45:52;12.90;;;2.65;;
11962;SDS011;62678;52.130;5.584;2022-09-09T09:48:20;11.95;;;2.10;;
11962;SDS011;62678;52.130;5.584;2022-09-09T09:50:48;8.68;;;2.42;;
11962;SDS011;62678;52.130;5.584;2022-09-09T09:53:19;8.73;;;2.00;;
11962;SDS011;62678;52.130;5.584;2022-09-09T09:55:50;13.32;;;2.20;;
11962;SDS011;62678;52.130;5.584;2022-09-09T09:58:21;8.30;;;2.00;;
11962;SDS011;62678;52.130;5.584;2022-09-09T10:00:50;9.55;;;1.75;;
11962;SDS011;62678;52.130;5.584;2022-09-09T10:03:21;10.32;;;1.95;;
11962;SDS011;62678;52.130;5.584;2022-09-09T10:05:50;10.57;;;2.58;;
11962;SDS011;62678;52.130;5.584;2022-09-09T10:08:18;10.98;;;2.25;;
11962;SDS011;62678;52.130;5.584;2022-09-09T10:10:49;12.65;;;2.20;;
11962;SDS011;62678;52.130;5.584;2022-09-09T10:13:24;9.93;;;2.20;;
11962;SDS011;62678;52.130;5.584;2022-09-09T10:16:00;10.48;;;2.13;;
11962;SDS011;62678;52.130;5.584;2022-09-09T10:18:42;10.30;;;2.53;;
11962;SDS011;62678;52.130;5.584;2022-09-09T10:21:21;17.40;;;4.20;;
11962;SDS011;62678;52.130;5.584;2022-09-09T10:24:11;10.15;;;2.40;;
11962;SDS011;62678;52.130;5.584;2022-09-09T10:26:57;15.98;;;2.70;;
11962;SDS011;62678;52.130;5.584;2022-09-09T10:29:35;13.32;;;2.25;;
11962;SDS011;62678;52.130;5.584;2022-09-09T10:32:20;7.97;;;1.73;;
11962;SDS011;62678;52.130;5.584;2022-09-09T10:35:04;9.82;;;1.70;;
11962;SDS011;62678;52.130;5.584;2022-09-09T10:37:40;9.23;;;1.95;;
11962;SDS011;62678;52.130;5.584;2022-09-09T10:40:23;8.05;;;1.90;;
11962;SDS011;62678;52.130;5.584;2022-09-09T10:42:59;9.95;;;2.20;;
11962;SDS011;62678;52.130;5.584;2022-09-09T10:45:35;6.50;;;2.30;;
11962;SDS011;62678;52.130;5.584;2022-09-09T10:48:17;9.13;;;2.63;;
11962;SDS011;62678;52.130;5.584;2022-09-09T10:50:58;8.63;;;2.60;;
11962;SDS011;62678;52.130;5.584;2022-09-09T10:53:37;10.45;;;2.67;;
11962;SDS011;62678;52.130;5.584;2022-09-09T10:56:13;9.52;;;2.47;;
11962;SDS011;62678;52.130;5.584;2022-09-09T10:58:44;7.25;;;2.70;;
11962;SDS011;62678;52.130;5.584;2022-09-09T11:01:17;8.77;;;2.65;;
11962;SDS011;62678;52.130;5.584;2022-09-09T11:03:50;10.73;;;3.45;;
11962;SDS011;62678;52.130;5.584;2022-09-09T11:06:21;9.10;;;2.97;;
11962;SDS011;62678;52.130;5.584;2022-09-09T11:08:53;12.30;;;3.00;;
11962;SDS011;62678;52.130;5.584;2022-09-09T11:11:20;9.48;;;3.08;;
11962;SDS011;62678;52.130;5.584;2022-09-09T11:13:54;9.68;;;2.42;;
11962;SDS011;62678;52.130;5.584;2022-09-09T11:16:28;6.15;;;2.67;;
11962;SDS011;62678;52.130;5.584;2022-09-09T11:18:58;5.22;;;2.30;;
11962;SDS011;62678;52.130;5.584;2022-09-09T11:21:30;9.55;;;2.42;;
11962;SDS011;62678;52.130;5.584;2022-09-09T11:24:01;9.98;;;3.20;;
11962;SDS011;62678;52.130;5.584;2022-09-09T11:26:36;11.23;;;3.00;;
11962;SDS011;62678;52.130;5.584;2022-09-09T11:29:10;7.80;;;3.33;;
11962;SDS011;62678;52.130;5.584;2022-09-09T11:31:53;8.48;;;3.17;;
11962;SDS011;62678;52.130;5.584;2022-09-09T11:34:36;6.40;;;2.58;;
11962;SDS011;62678;52.130;5.584;2022-09-09T11:37:20;9.10;;;2.92;;
11962;SDS011;62678;52.130;5.584;2022-09-09T11:40:14;7.18;;;2.67;;
11962;SDS011;62678;52.130;5.584;2022-09-09T11:42:45;8.15;;;2.30;;
11962;SDS011;62678;52.130;5.584;2022-09-09T11:45:21;7.78;;;2.97;;
11962;SDS011;62678;52.130;5.584;2022-09-09T11:47:55;8.95;;;4.47;;
11962;SDS011;62678;52.130;5.584;2022-09-09T11:50:30;8.65;;;2.58;;
11962;SDS011;62678;52.130;5.584;2022-09-09T11:55:59;9.02;;;3.50;;
11962;SDS011;62678;52.130;5.584;2022-09-09T11:58:36;6.50;;;2.60;;
11962;SDS011;62678;52.130;5.584;2022-09-09T12:04:13;8.55;;;3.10;;
11962;SDS011;62678;52.130;5.584;2022-09-09T12:06:44;7.85;;;2.92;;
11962;SDS011;62678;52.130;5.584;2022-09-09T12:09:16;6.22;;;2.17;;
11962;SDS011;62678;52.130;5.584;2022-09-09T12:11:48;6.95;;;2.75;;
11962;SDS011;62678;52.130;5.584;2022-09-09T12:14:22;5.85;;;2.85;;
11962;SDS011;62678;52.130;5.584;2022-09-09T12:17:08;8.15;;;2.58;;
11962;SDS011;62678;52.130;5.584;2022-09-09T12:19:37;7.30;;;2.10;;
11962;SDS011;62678;52.130;5.584;2022-09-09T12:22:05;7.45;;;2.20;;
11962;SDS011;62678;52.130;5.584;2022-09-09T12:24:40;4.97;;;1.92;;
11962;SDS011;62678;52.130;5.584;2022-09-09T12:27:14;5.40;;;1.98;;
11962;SDS011;62678;52.130;5.584;2022-09-09T12:29:46;6.10;;;2.47;;
11962;SDS011;62678;52.130;5.584;2022-09-09T12:32:20;8.95;;;2.42;;
11962;SDS011;62678;52.130;5.584;2022-09-09T12:34:51;7.80;;;3.10;;
11962;SDS011;62678;52.130;5.584;2022-09-09T12:37:24;5.70;;;2.47;;
11962;SDS011;62678;52.130;5.584;2022-09-09T12:39:55;9.10;;;2.78;;
11962;SDS011;62678;52.130;5.584;2022-09-09T12:42:24;10.23;;;2.72;;
11962;SDS011;62678;52.130;5.584;2022-09-09T12:44:53;5.72;;;2.75;;
11962;SDS011;62678;52.130;5.584;2022-09-09T12:47:21;7.53;;;2.60;;
11962;SDS011;62678;52.130;5.584;2022-09-09T12:49:52;7.95;;;2.50;;
11962;SDS011;62678;52.130;5.584;2022-09-09T12:52:23;8.30;;;2.60;;
11962;SDS011;62678;52.130;5.584;2022-09-09T12:54:55;5.40;;;2.42;;
11962;SDS011;62678;52.130;5.584;2022-09-09T12:57:23;6.10;;;2.60;;
11962;SDS011;62678;52.130;5.584;2022-09-09T12:59:52;8.38;;;2.35;;
11962;SDS011;62678;52.130;5.584;2022-09-09T13:02:30;7.60;;;2.40;;
11962;SDS011;62678;52.130;5.584;2022-09-09T13:05:05;9.35;;;3.10;;
11962;SDS011;62678;52.130;5.584;2022-09-09T13:07:38;6.15;;;2.90;;
11962;SDS011;62678;52.130;5.584;2022-09-09T13:10:05;6.97;;;3.10;;
11962;SDS011;62678;52.130;5.584;2022-09-09T13:12:36;7.80;;;2.72;;
11962;SDS011;62678;52.130;5.584;2022-09-09T13:15:03;5.15;;;2.30;;
11962;SDS011;62678;52.130;5.584;2022-09-09T13:17:36;7.13;;;2.30;;
11962;SDS011;62678;52.130;5.584;2022-09-09T13:20:14;5.22;;;2.40;;
11962;SDS011;62678;52.130;5.584;2022-09-09T13:22:42;4.90;;;2.10;;
11962;SDS011;62678;52.130;5.584;2022-09-09T13:25:17;6.30;;;2.10;;
11962;SDS011;62678;52.130;5.584;2022-09-09T13:27:58;7.50;;;2.42;;
11962;SDS011;62678;52.130;5.584;2022-09-09T13:30:28;7.78;;;2.45;;
11962;SDS011;62678;52.130;5.584;2022-09-09T13:33:04;4.93;;;2.35;;
11962;SDS011;62678;52.130;5.584;2022-09-09T13:35:46;7.50;;;2.75;;
11962;SDS011;62678;52.130;5.584;2022-09-09T13:38:15;8.45;;;2.70;;
11962;SDS011;62678;52.130;5.584;2022-09-09T13:40:51;5.35;;;2.38;;
11962;SDS011;62678;52.130;5.584;2022-09-09T13:43:21;3.70;;;2.30;;
11962;SDS011;62678;52.130;5.584;2022-09-09T13:45:52;6.25;;;2.50;;
11962;SDS011;62678;52.130;5.584;2022-09-09T13:48:23;8.45;;;2.40;;
11962;SDS011;62678;52.130;5.584;2022-09-09T13:50:56;8.95;;;3.00;;
11962;SDS011;62678;52.130;5.584;2022-09-09T13:53:25;5.90;;;2.38;;
11962;SDS011;62678;52.130;5.584;2022-09-09T13:55:52;5.53;;;2.45;;
11962;SDS011;62678;52.130;5.584;2022-09-09T13:58:19;8.02;;;2.50;;
11962;SDS011;62678;52.130;5.584;2022-09-09T14:00:47;5.30;;;2.13;;
11962;SDS011;62678;52.130;5.584;2022-09-09T14:03:15;6.85;;;2.22;;
11962;SDS011;62678;52.130;5.584;2022-09-09T14:05:43;5.50;;;2.42;;
11962;SDS011;62678;52.130;5.584;2022-09-09T14:08:15;9.25;;;3.13;;
11962;SDS011;62678;52.130;5.584;2022-09-09T14:10:58;7.28;;;2.00;;
11962;SDS011;62678;52.130;5.584;2022-09-09T14:13:28;6.05;;;2.00;;
11962;SDS011;62678;52.130;5.584;2022-09-09T14:15:57;5.03;;;2.22;;
11962;SDS011;62678;52.130;5.584;2022-09-09T14:18:26;7.03;;;2.40;;
11962;SDS011;62678;52.130;5.584;2022-09-09T14:20:54;8.60;;;2.40;;
11962;SDS011;62678;52.130;5.584;2022-09-09T14:23:25;6.72;;;2.60;;
11962;SDS011;62678;52.130;5.584;2022-09-09T14:25:55;6.82;;;2.30;;
11962;SDS011;62678;52.130;5.584;2022-09-09T14:28:22;7.03;;;2.28;;
11962;SDS011;62678;52.130;5.584;2022-09-09T14:30:49;7.55;;;2.35;;
11962;SDS011;62678;52.130;5.584;2022-09-09T14:33:16;7.30;;;3.95;;
11962;SDS011;62678;52.130;5.584;2022-09-09T14:35:43;6.45;;;2.80;;
11962;SDS011;62678;52.130;5.584;2022-09-09T14:38:10;4.15;;;1.83;;
11962;SDS011;62678;52.130;5.584;2022-09-09T14:40:38;4.38;;;2.03;;
11962;SDS011;62678;52.130;5.584;2022-09-09T14:43:05;7.85;;;2.00;;
11962;SDS011;62678;52.130;5.584;2022-09-09T14:45:32;5.80;;;1.85;;
11962;SDS011;62678;52.130;5.584;2022-09-09T14:47:59;4.75;;;1.98;;
11962;SDS011;62678;52.130;5.584;2022-09-09T14:50:25;6.35;;;2.75;;
11962;SDS011;62678;52.130;5.584;2022-09-09T14:52:52;6.55;;;2.08;;
11962;SDS011;62678;52.130;5.584;2022-09-09T14:55:19;5.85;;;1.88;;
11962;SDS011;62678;52.130;5.584;2022-09-09T14:57:47;7.63;;;2.22;;
11962;SDS011;62678;52.130;5.584;2022-09-09T15:00:15;9.73;;;2.83;;
11962;SDS011;62678;52.130;5.584;2022-09-09T15:02:41;8.90;;;5.07;;
11962;SDS011;62678;52.130;5.584;2022-09-09T15:05:08;5.28;;;2.25;;
11962;SDS011;62678;52.130;5.584;2022-09-09T15:07:35;3.67;;;1.70;;
11962;SDS011;62678;52.130;5.584;2022-09-09T15:10:03;6.78;;;2.10;;
11962;SDS011;62678;52.130;5.584;2022-09-09T15:12:31;8.90;;;2.60;;